Latest Weather Observations for Evans Head

IDN60801

Issued at 10:03 pm EST Saturday 24 June 2017 (issued every 30 minutes, with the page automatically refreshed every 10 minutes)

About weather observations | Map of weather stations | Latest weather observations for NSW | Other Formats
Station Details ID: 058212 Name: EVANS HEAD RAAF BOMBING RANGE AWS Lat: -29.18 Lon: 153.40 Height: 62.5 m
Data from the previous 72 hours. | See also: Recent months at Evans Head
Date/Time
EST
Temp
°C
App
Temp
°C
Dew
Point
°C
Rel
Hum
%
Delta-T
°C
Wind Press
QNH
hPa
Press
MSL
hPa
Rain since
9am
mm
Dir  Spd
km/h
Gust
km/h
Spd
kts
Gust
kts
24/10:00pm 16.4 15.0 9.6 64 3.5 ENE 7 9 4 5 1018.6 1018.5 0.0
24/09:30pm 16.4 15.1 9.3 63 3.7 E 6 9 3 5 1018.3 1018.2 0.0
24/09:00pm 16.6 15.1 9.1 61 3.9 ESE 7 9 4 5 1018.6 1018.5 0.0
24/08:30pm 16.7 14.8 8.9 60 4.0 ESE 9 11 5 6 1018.3 1018.2 0.0
24/08:00pm 16.8 14.2 9.2 61 3.9 SE 13 17 7 9 1018.2 1018.1 0.0
24/07:30pm 17.0 14.3 8.9 59 4.2 SE 13 17 7 9 1018.0 1017.9 0.0
24/07:00pm 17.1 14.4 8.8 58 4.3 SE 13 17 7 9 1017.7 1017.6 0.0
24/06:30pm 17.2 14.0 8.4 56 4.5 SE 15 20 8 11 1017.5 1017.4 0.0
24/06:00pm 17.2 14.0 8.6 57 4.4 SSE 15 19 8 10 1017.2 1017.1 0.0
24/05:30pm 17.2 14.0 8.4 56 4.5 SSE 15 22 8 12 1016.8 1016.7 0.0
24/05:00pm 17.1 13.9 8.3 56 4.5 SSE 15 19 8 10 1016.5 1016.4 0.0
24/04:30pm 17.7 14.8 8.3 54 4.8 SSE 13 17 7 9 1016.3 1016.2 0.0
24/04:00pm 18.5 14.9 8.5 52 5.2 SSE 17 22 9 12 1016.2 1016.1 0.0
24/03:30pm 19.5 15.9 8.2 48 5.9 SSE 17 22 9 12 1016.0 1015.9 0.0
24/03:00pm 20.1 16.4 8.1 46 6.2 S 17 24 9 13 1015.9 1015.8 0.0
24/02:30pm 20.6 17.1 8.9 47 6.2 SSE 17 22 9 12 1015.8 1015.7 0.0
24/02:00pm 21.1 17.3 7.7 42 6.9 SSE 17 24 9 13 1015.7 1015.6 0.0
24/01:30pm 21.4 17.5 7.3 40 7.3 S 17 24 9 13 1015.8 1015.7 0.0
24/01:00pm 20.9 16.2 7.9 43 6.8 S 22 30 12 16 1015.9 1015.8 0.0
24/12:30pm 21.8 17.9 8.7 43 7.0 S 19 24 10 13 1016.1 1016.0 0.0
24/12:00pm 21.4 18.0 6.1 37 7.7 SSW 13 20 7 11 1016.6 1016.5 0.0
24/11:30am 21.1 17.5 8.4 44 6.7 SW 17 24 9 13 1017.2 1017.1 0.0
24/11:00am 20.2 17.6 7.6 44 6.5 WSW 11 19 6 10 1017.5 1017.4 0.0
24/10:30am 20.1 17.1 7.5 44 6.5 WSW 13 20 7 11 1017.6 1017.5 0.0
24/10:00am 20.5 18.1 10.0 51 5.7 NW 13 20 7 11 1017.7 1017.6 0.0
24/09:30am 18.9 16.1 8.6 51 5.4 NW 13 19 7 10 1017.8 1017.7 0.0
24/09:00am 18.9 16.0 8.3 50 5.5 NW 13 19 7 10 1017.6 1017.5 0.0
24/08:30am 17.6 14.6 7.6 52 5.1 WNW 13 17 7 9 1017.4 1017.3 0.0
24/08:00am 16.2 13.1 7.2 55 4.5 WNW 13 19 7 10 1017.3 1017.2 0.0
24/07:30am 15.1 11.6 7.2 59 3.9 WNW 15 20 8 11 1016.6 1016.5 0.0
24/07:00am 14.8 11.2 6.6 58 4.0 NW 15 20 8 11 1016.1 1016.0 0.0
24/06:30am 14.7 11.1 6.8 59 3.9 NW 15 20 8 11 1016.0 1015.9 0.0
24/06:00am 14.5 11.0 7.1 61 3.6 WNW 15 20 8 11 1015.6 1015.5 0.0
24/05:30am 14.6 11.1 7.2 61 3.6 NW 15 19 8 10 1015.4 1015.3 0.0
24/05:00am 14.5 11.1 7.5 63 3.5 NW 15 19 8 10 1015.2 1015.1 0.0
24/04:30am 13.7 11.9 7.9 68 2.9 NNW 7 11 4 6 1015.1 1015.0 0.0
24/04:00am 13.1 11.0 8.4 73 2.3 NNW 9 17 5 9 1015.1 1015.0 0.0
24/03:30am 13.4 11.4 8.5 72 2.5 NNW 9 17 5 9 1015.0 1014.9 0.0
24/03:00am 13.5 11.0 8.4 71 2.6 NNW 11 19 6 10 1015.3 1015.2 0.0
24/02:30am 13.5 10.7 8.4 71 2.6 NNW 13 20 7 11 1015.3 1015.2 0.0
24/02:00am 13.3 11.0 9.0 75 2.2 N 11 17 6 9 1015.4 1015.3 0.0
24/01:30am 12.8 10.1 9.1 78 1.9 NNW 13 22 7 12 1015.6 1015.5 0.0
24/01:00am 12.8 10.1 9.1 78 1.9 NNW 13 19 7 10 1016.1 1016.0 0.0
24/12:30am 13.4 11.1 9.1 75 2.2 N 11 13 6 7 1016.7 1016.6 0.0
24/12:00am 14.2 11.6 9.2 72 2.6 NNW 13 20 7 11 1016.8 1016.7 0.0
 
Date/Time
EST
Temp
°C
App
Temp
°C
Dew
Point
°C
Rel
Hum
%
Delta-T
°C
Wind Press
QNH
hPa
Press
MSL
hPa
Rain since
9am
mm
Dir  Spd
km/h
Gust
km/h
Spd
kts
Gust
kts
23/11:30pm 14.0 11.5 9.6 75 2.3 NNW 13 17 7 9 1016.9 1016.8 0.0
23/11:00pm 13.8 11.3 9.8 77 2.1 NNW 13 17 7 9 1017.4 1017.3 0.0
23/10:30pm 13.6 11.3 10.6 82 1.6 NNW 13 17 7 9 1017.8 1017.7 0.0
23/10:00pm 13.8 11.7 11.0 83 1.5 NNW 13 19 7 10 1018.0 1017.9 0.0
23/09:30pm 14.1 12.1 11.4 84 1.4 NNW 13 19 7 10 1017.9 1017.8 0.0
23/09:00pm 13.6 12.2 12.2 91 0.8 NNW 11 15 6 8 1018.1 1018.0 0.0
23/08:30pm 13.6 11.8 12.0 90 0.9 N 13 17 7 9 1018.1 1018.0 0.0
23/08:00pm 14.1 12.4 12.5 90 0.9 N 13 17 7 9 1018.0 1017.9 0.0
23/07:30pm 14.1 12.7 12.3 89 1.0 N 11 15 6 8 1018.0 1017.9 0.0
23/07:00pm 14.9 13.7 12.9 88 1.1 N 11 15 6 8 1018.0 1017.9 0.0
23/06:30pm 14.8 13.2 12.8 88 1.1 N 13 17 7 9 1017.6 1017.5 0.0
23/06:00pm 15.2 14.1 13.1 87 1.2 N 11 17 6 9 1017.3 1017.2 0.0
23/05:30pm 15.6 14.4 12.9 84 1.5 N 11 15 6 8 1017.1 1017.0 0.0
23/05:00pm 17.1 16.8 13.2 78 2.2 N 7 9 4 5 1017.4 1017.3 0.0
23/04:30pm 19.0 18.6 12.3 65 3.7 N 6 7 3 4 1017.5 1017.4 0.0
23/04:00pm 20.1 19.3 11.6 58 4.7 N 7 11 4 6 1017.7 1017.6 0.0
23/03:30pm 21.9 20.3 11.6 52 5.8 N 11 17 6 9 1017.7 1017.6 0.0
23/03:00pm 21.7 20.4 11.4 52 5.7 NNW 9 15 5 8 1017.8 1017.7 0.0
23/02:30pm 22.4 20.6 10.9 48 6.4 NNW 11 19 6 10 1017.9 1017.8 0.0
23/02:00pm 22.4 20.2 10.9 48 6.4 NNW 13 22 7 12 1018.1 1018.0 0.0
23/01:30pm 22.9 21.0 11.9 50 6.2 NNW 13 20 7 11 1018.5 1018.4 0.0
23/01:00pm 22.9 22.0 12.5 52 5.9 NNW 9 15 5 8 1019.1 1019.0 0.0
23/12:30pm 22.7 21.0 12.3 52 5.9 NNW 13 19 7 10 1019.6 1019.5 0.0
23/12:00pm 22.0 21.3 13.1 57 5.1 NNW 9 13 5 7 1020.2 1020.1 0.0
23/11:30am 20.2 19.4 12.9 63 4.1 W 9 15 5 8 1020.8 1020.7 0.0
23/11:00am 20.1 19.1 12.3 61 4.4 NW 9 15 5 8 1021.7 1021.6 0.0
23/10:30am 19.5 18.7 12.8 65 3.8 NW 9 15 5 8 1022.2 1022.1 0.0
23/10:00am 18.8 17.9 12.5 67 3.5 NW 9 13 5 7 1022.5 1022.4 0.0
23/09:30am 17.2 16.7 12.5 74 2.6 NW 7 11 4 6 1022.8 1022.7 0.0
23/09:00am 16.5 15.6 12.7 78 2.1 NW 9 17 5 9 1022.7 1022.6 0.0
23/08:30am 14.7 14.0 12.0 84 1.5 NW 7 11 4 6 1022.6 1022.5 0.0
23/08:00am 12.2 11.7 10.8 91 0.7 N 4 7 2 4 1022.6 1022.5 0.0
23/07:30am 11.5 10.4 9.8 89 0.9 W 6 9 3 5 1022.4 1022.3 0.0
23/07:00am 12.2 10.7 10.6 90 0.8 W 9 11 5 6 1022.0 1021.9 0.0
23/06:30am 12.2 11.1 10.6 90 0.8 W 7 13 4 7 1021.9 1021.8 0.0
23/06:00am 12.6 10.8 10.8 89 0.9 WNW 11 17 6 9 1022.0 1021.9 0.0
23/05:30am 12.4 10.6 11.0 91 0.7 WNW 11 15 6 8 1021.5 1021.4 0.0
23/05:00am 12.6 10.4 10.8 89 0.9 WNW 13 17 7 9 1021.4 1021.3 0.0
23/04:30am 12.5 10.7 10.9 90 0.8 WNW 11 17 6 9 1021.3 1021.2 0.0
23/04:00am 12.9 10.8 11.1 89 0.9 WNW 13 17 7 9 1021.6 1021.5 0.0
23/03:30am 13.3 11.7 11.4 88 1.0 WNW 11 15 6 8 1021.7 1021.6 0.0
23/03:00am 13.4 11.8 11.5 88 1.0 WNW 11 15 6 8 1021.9 1021.8 0.0
23/02:30am 13.4 11.4 11.6 89 1.0 WNW 13 17 7 9 1022.0 1021.9 0.0
23/02:00am 13.4 11.8 11.6 89 1.0 WNW 11 15 6 8 1022.2 1022.1 0.0
23/01:30am 13.6 11.7 11.7 88 1.0 W 13 19 7 10 1022.4 1022.3 0.0
23/01:00am 13.9 12.0 11.9 88 1.1 W 13 17 7 9 1022.6 1022.5 0.0
23/12:30am 14.4 12.7 12.3 87 1.1 W 13 17 7 9 1022.8 1022.7 0.0
23/12:00am 15.0 13.3 12.5 85 1.4 WSW 13 17 7 9 1023.0 1022.9 0.0
 
Date/Time
EST
Temp
°C
App
Temp
°C
Dew
Point
°C
Rel
Hum
%
Delta-T
°C
Wind Press
QNH
hPa
Press
MSL
hPa
Rain since
9am
mm
Dir  Spd
km/h
Gust
km/h
Spd
kts
Gust
kts
22/11:30pm 15.3 14.0 12.6 84 1.5 WSW 11 13 6 7 1023.3 1023.3 0.0
22/11:00pm 15.4 14.5 12.5 83 1.6 WSW 9 13 5 7 1023.5 1023.5 0.0
22/10:30pm 15.4 14.0 12.3 82 1.7 SW 11 13 6 7 1023.7 1023.7 0.0
22/10:00pm 15.6 14.4 12.7 83 1.6 SW 11 15 6 8 1023.8 1023.8 0.0
22/09:30pm 15.8 14.6 12.9 83 1.6 SW 11 15 6 8 1024.0 1024.0 0.0
22/09:00pm 15.5 14.1 12.3 81 1.7 SW 11 17 6 9 1024.3 1024.3 0.0
22/08:30pm 15.7 13.8 11.9 78 2.1 SW 13 15 7 8 1024.2 1024.2 0.0
22/08:00pm 15.9 13.2 11.7 76 2.3 WSW 17 20 9 11 1024.3 1024.3 0.0
22/07:30pm 15.8 13.8 11.6 76 2.3 WSW 13 15 7 8 1024.0 1024.0 0.0
22/07:00pm 16.6 15.2 12.2 75 2.4 SW 11 15 6 8 1023.9 1023.9 0.0
22/06:30pm 16.4 14.2 12.0 75 2.4 S 15 20 8 11 1023.9 1023.9 0.0
22/06:00pm 15.9 13.6 11.9 77 2.2 S 15 22 8 12 1023.8 1023.8 0.0
22/05:30pm 15.9 14.1 12.1 78 2.1 S 13 17 7 9 1023.6 1023.6 0.0
22/05:00pm 16.5 14.8 12.3 76 2.3 S 13 17 7 9 1023.3 1023.3 0.0
22/04:30pm 17.5 15.0 12.2 71 2.9 S 17 24 9 13 1023.0 1022.9 0.0
22/04:00pm 18.3 16.2 12.3 68 3.3 S 15 20 8 11 1023.0 1022.9 0.0
22/03:30pm 19.3 16.9 12.8 66 3.7 SSE 17 24 9 13 1022.8 1022.7 0.0
22/03:00pm 19.6 16.7 12.4 63 4.0 SSE 19 24 10 13 1022.8 1022.7 0.0
22/02:30pm 20.4 18.0 12.6 61 4.4 SSE 17 22 9 12 1022.8 1022.7 0.0
22/02:00pm 20.6 17.8 11.2 55 5.2 S 17 22 9 12 1023.0 1022.9 0.0
22/01:30pm 20.8 18.1 11.7 56 5.1 SSE 17 24 9 13 1023.0 1022.9 0.0
22/01:00pm 20.7 17.4 11.6 56 5.0 S 20 26 11 14 1023.4 1023.4 0.0
22/12:30pm 20.6 17.6 10.7 53 5.4 SSE 17 24 9 13 1023.9 1023.9 0.0
22/12:00pm 20.4 17.6 11.3 56 5.0 S 17 24 9 13 1024.5 1024.5 0.0
22/11:30am 19.9 16.8 11.7 59 4.5 S 19 26 10 14 1024.9 1024.9 0.0
22/11:00am 19.6 17.0 12.1 62 4.2 SSW 17 28 9 15 1025.3 1025.3 0.0
22/10:30am 18.8 16.0 11.4 62 4.1 SSW 17 24 9 13 1025.6 1025.6 0.0
22/10:00am 18.2 15.9 11.7 66 3.6 SW 15 22 8 12 1025.9 1025.9 0.0
22/09:30am 17.5 14.6 11.1 66 3.5 SSW 17 28 9 15 1025.9 1025.9 0.0
22/09:00am 16.4 13.5 11.1 71 2.8 SW 17 26 9 14 1025.7 1025.7 0.0
22/08:30am 15.3 12.2 10.3 72 2.6 SW 17 26 9 14 1025.6 1025.6 0.0
22/08:00am 14.0 10.3 9.4 74 2.3 WSW 19 24 10 13 1025.3 1025.3 0.0
22/07:30am 13.7 10.3 9.2 74 2.3 WSW 17 26 9 14 1025.0 1025.0 0.0
22/07:00am 13.7 9.9 9.2 74 2.3 WSW 19 26 10 14 1024.8 1024.8 0.0
22/06:30am 13.7 10.0 9.4 75 2.2 SW 19 26 10 14 1024.6 1024.6 0.0
22/06:00am 13.7 10.3 9.2 74 2.3 SW 17 24 9 13 1024.2 1024.2 0.0
22/05:30am 14.2 11.5 9.0 71 2.6 WSW 13 19 7 10 1024.0 1024.0 0.0
22/05:00am 14.3 10.9 9.3 72 2.6 WSW 17 26 9 14 1023.8 1023.8 0.0
22/04:30am 14.2 10.8 9.0 71 2.6 SW 17 28 9 15 1023.7 1023.7 0.0
22/04:00am 14.5 11.5 9.1 70 2.7 SW 15 22 8 12 1023.6 1023.6 0.0
22/03:30am 15.0 11.7 9.4 69 2.9 SW 17 24 9 13 1023.6 1023.6 0.0
22/03:00am 14.7 10.4 9.3 70 2.8 SW 22 32 12 17 1023.6 1023.6 0.0
22/02:30am 14.4 10.5 9.4 72 2.6 SW 20 30 11 16 1023.5 1023.5 0.0
22/02:00am 14.3 10.4 9.5 73 2.5 SW 20 30 11 16 1023.6 1023.6 0.0
22/01:30am 14.7 10.9 9.7 72 2.6 SW 20 32 11 17 1023.6 1023.6 0.0
22/01:00am 14.7 11.1 9.9 73 2.5 SW 19 26 10 14 1023.9 1023.9 0.0
22/12:30am 14.7 11.0 10.1 74 2.4 SW 20 30 11 16 1024.1 1024.1 0.0
22/12:00am 15.0 11.0 10.4 74 2.4 SW 22 32 12 17 1024.1 1024.1 0.0
 
Date/Time
EST
Temp
°C
App
Temp
°C
Dew
Point
°C
Rel
Hum
%
Delta-T
°C
Wind Press
QNH
hPa
Press
MSL
hPa
Rain since
9am
mm
Dir  Spd
km/h
Gust
km/h
Spd
kts
Gust
kts
21/11:30pm 15.5 11.6 10.7 73 2.5 SW 22 35 12 19 1024.2 1024.2 0.0
21/11:00pm 15.7 12.3 11.1 74 2.5 SW 20 28 11 15 1024.4 1024.4 0.0
21/10:30pm 16.0 13.2 11.4 74 2.5 SW 17 28 9 15 1024.6 1024.6 0.0

Other Formats:

Comma delimited format used in spreadsheet applications
http://www.bom.gov.au/fwo/IDN60801/IDN60801.94598.axf

JavaScript Object Notation format (JSON) in row-major order
http://www.bom.gov.au/fwo/IDN60801/IDN60801.94598.json